sensor_id;sensor_type;location;lat;lon;timestamp;P1;durP1;ratioP1;P2;durP2;ratioP2
24277;SDS011;12394;42.692;23.314;2023-05-10T00:02:22;8.67;;;7.17;;
24277;SDS011;12394;42.692;23.314;2023-05-10T00:04:47;8.43;;;6.97;;
24277;SDS011;12394;42.692;23.314;2023-05-10T00:07:13;9.07;;;7.87;;
24277;SDS011;12394;42.692;23.314;2023-05-10T00:09:38;8.73;;;7.33;;
24277;SDS011;12394;42.692;23.314;2023-05-10T00:12:05;12.83;;;7.87;;
24277;SDS011;12394;42.692;23.314;2023-05-10T00:14:30;9.30;;;8.33;;
24277;SDS011;12394;42.692;23.314;2023-05-10T00:16:56;11.60;;;8.30;;
24277;SDS011;12394;42.692;23.314;2023-05-10T00:19:21;9.40;;;8.23;;
24277;SDS011;12394;42.692;23.314;2023-05-10T00:21:47;11.37;;;8.60;;
24277;SDS011;12394;42.692;23.314;2023-05-10T00:24:12;11.47;;;8.93;;
24277;SDS011;12394;42.692;23.314;2023-05-10T00:26:37;10.00;;;9.03;;
24277;SDS011;12394;42.692;23.314;2023-05-10T00:29:03;10.97;;;9.70;;
24277;SDS011;12394;42.692;23.314;2023-05-10T00:31:28;12.40;;;9.30;;
24277;SDS011;12394;42.692;23.314;2023-05-10T00:33:54;12.03;;;10.50;;
24277;SDS011;12394;42.692;23.314;2023-05-10T00:36:19;10.73;;;9.63;;
24277;SDS011;12394;42.692;23.314;2023-05-10T00:38:45;12.23;;;10.13;;
24277;SDS011;12394;42.692;23.314;2023-05-10T00:41:11;10.87;;;9.63;;
24277;SDS011;12394;42.692;23.314;2023-05-10T00:43:36;11.77;;;10.20;;
24277;SDS011;12394;42.692;23.314;2023-05-10T00:46:01;13.97;;;10.43;;
24277;SDS011;12394;42.692;23.314;2023-05-10T00:48:28;11.27;;;10.07;;
24277;SDS011;12394;42.692;23.314;2023-05-10T00:50:54;13.80;;;11.07;;
24277;SDS011;12394;42.692;23.314;2023-05-10T00:53:19;12.17;;;10.90;;
24277;SDS011;12394;42.692;23.314;2023-05-10T00:55:45;12.73;;;11.27;;
24277;SDS011;12394;42.692;23.314;2023-05-10T00:58:10;13.57;;;12.17;;
24277;SDS011;12394;42.692;23.314;2023-05-10T01:00:37;13.30;;;11.23;;
24277;SDS011;12394;42.692;23.314;2023-05-10T01:03:05;14.00;;;12.33;;
24277;SDS011;12394;42.692;23.314;2023-05-10T01:05:32;12.87;;;11.43;;
24277;SDS011;12394;42.692;23.314;2023-05-10T01:07:58;14.27;;;11.80;;
24277;SDS011;12394;42.692;23.314;2023-05-10T01:10:23;12.50;;;11.20;;
24277;SDS011;12394;42.692;23.314;2023-05-10T01:12:49;15.90;;;11.40;;
24277;SDS011;12394;42.692;23.314;2023-05-10T01:15:14;13.37;;;12.07;;
24277;SDS011;12394;42.692;23.314;2023-05-10T01:17:42;13.70;;;12.30;;
24277;SDS011;12394;42.692;23.314;2023-05-10T01:20:09;13.80;;;11.77;;
24277;SDS011;12394;42.692;23.314;2023-05-10T01:29:03;12.93;;;11.50;;
24277;SDS011;12394;42.692;23.314;2023-05-10T01:39:36;11.80;;;10.53;;
24277;SDS011;12394;42.692;23.314;2023-05-10T01:42:10;11.03;;;9.70;;
24277;SDS011;12394;42.692;23.314;2023-05-10T01:50:03;14.30;;;10.70;;
24277;SDS011;12394;42.692;23.314;2023-05-10T01:52:36;13.47;;;9.60;;
24277;SDS011;12394;42.692;23.314;2023-05-10T01:55:06;11.97;;;9.67;;
24277;SDS011;12394;42.692;23.314;2023-05-10T01:57:37;11.90;;;10.50;;
24277;SDS011;12394;42.692;23.314;2023-05-10T02:00:04;11.67;;;9.97;;
24277;SDS011;12394;42.692;23.314;2023-05-10T02:02:50;10.77;;;9.63;;
24277;SDS011;12394;42.692;23.314;2023-05-10T02:05:18;12.20;;;8.87;;
24277;SDS011;12394;42.692;23.314;2023-05-10T02:07:44;10.63;;;9.53;;
24277;SDS011;12394;42.692;23.314;2023-05-10T02:10:11;9.27;;;7.97;;
24277;SDS011;12394;42.692;23.314;2023-05-10T02:12:41;8.40;;;7.50;;
24277;SDS011;12394;42.692;23.314;2023-05-10T02:15:08;9.10;;;8.10;;
24277;SDS011;12394;42.692;23.314;2023-05-10T02:17:37;8.27;;;7.20;;
24277;SDS011;12394;42.692;23.314;2023-05-10T02:20:04;7.30;;;6.60;;
24277;SDS011;12394;42.692;23.314;2023-05-10T02:22:32;6.53;;;5.93;;
24277;SDS011;12394;42.692;23.314;2023-05-10T02:25:00;8.07;;;6.63;;
24277;SDS011;12394;42.692;23.314;2023-05-10T02:27:27;8.43;;;7.20;;
24277;SDS011;12394;42.692;23.314;2023-05-10T02:29:54;7.27;;;6.57;;
24277;SDS011;12394;42.692;23.314;2023-05-10T02:32:20;8.07;;;6.43;;
24277;SDS011;12394;42.692;23.314;2023-05-10T02:34:47;7.83;;;6.07;;
24277;SDS011;12394;42.692;23.314;2023-05-10T02:37:18;5.93;;;5.37;;
24277;SDS011;12394;42.692;23.314;2023-05-10T02:39:48;6.67;;;5.97;;
24277;SDS011;12394;42.692;23.314;2023-05-10T02:42:19;6.53;;;5.43;;
24277;SDS011;12394;42.692;23.314;2023-05-10T02:45:02;5.83;;;4.87;;
24277;SDS011;12394;42.692;23.314;2023-05-10T02:47:32;5.97;;;5.37;;
24277;SDS011;12394;42.692;23.314;2023-05-10T02:49:58;8.77;;;4.60;;
24277;SDS011;12394;42.692;23.314;2023-05-10T02:52:28;6.77;;;4.53;;
24277;SDS011;12394;42.692;23.314;2023-05-10T02:55:01;6.27;;;5.63;;
24277;SDS011;12394;42.692;23.314;2023-05-10T02:57:32;5.37;;;4.73;;
24277;SDS011;12394;42.692;23.314;2023-05-10T02:59:59;7.00;;;4.90;;
24277;SDS011;12394;42.692;23.314;2023-05-10T03:02:26;8.23;;;5.40;;
24277;SDS011;12394;42.692;23.314;2023-05-10T03:04:51;7.03;;;5.63;;
24277;SDS011;12394;42.692;23.314;2023-05-10T03:07:17;5.30;;;4.73;;
24277;SDS011;12394;42.692;23.314;2023-05-10T03:09:46;5.80;;;5.20;;
24277;SDS011;12394;42.692;23.314;2023-05-10T03:15:31;7.63;;;6.17;;
24277;SDS011;12394;42.692;23.314;2023-05-10T03:20:43;9.13;;;5.67;;
24277;SDS011;12394;42.692;23.314;2023-05-10T03:23:23;6.40;;;5.57;;
24277;SDS011;12394;42.692;23.314;2023-05-10T03:25:52;11.50;;;5.80;;
24277;SDS011;12394;42.692;23.314;2023-05-10T03:28:18;9.07;;;6.03;;
24277;SDS011;12394;42.692;23.314;2023-05-10T03:30:46;8.27;;;6.00;;
24277;SDS011;12394;42.692;23.314;2023-05-10T03:33:12;7.90;;;6.27;;
24277;SDS011;12394;42.692;23.314;2023-05-10T03:35:38;9.10;;;5.87;;
24277;SDS011;12394;42.692;23.314;2023-05-10T03:38:03;8.10;;;6.30;;
24277;SDS011;12394;42.692;23.314;2023-05-10T03:40:29;9.27;;;6.50;;
24277;SDS011;12394;42.692;23.314;2023-05-10T03:42:56;7.50;;;5.07;;
24277;SDS011;12394;42.692;23.314;2023-05-10T03:45:22;7.60;;;5.80;;
24277;SDS011;12394;42.692;23.314;2023-05-10T03:47:47;11.20;;;8.40;;
24277;SDS011;12394;42.692;23.314;2023-05-10T03:50:13;9.37;;;6.37;;
24277;SDS011;12394;42.692;23.314;2023-05-10T03:52:38;7.80;;;5.87;;
24277;SDS011;12394;42.692;23.314;2023-05-10T03:55:06;9.33;;;5.70;;
24277;SDS011;12394;42.692;23.314;2023-05-10T03:57:32;7.03;;;5.60;;
24277;SDS011;12394;42.692;23.314;2023-05-10T03:59:58;8.10;;;5.77;;
24277;SDS011;12394;42.692;23.314;2023-05-10T04:02:24;9.77;;;5.97;;
24277;SDS011;12394;42.692;23.314;2023-05-10T04:04:49;7.03;;;5.53;;
24277;SDS011;12394;42.692;23.314;2023-05-10T04:07:15;8.40;;;7.00;;
24277;SDS011;12394;42.692;23.314;2023-05-10T04:09:40;6.97;;;5.90;;
24277;SDS011;12394;42.692;23.314;2023-05-10T04:12:06;6.70;;;5.80;;
24277;SDS011;12394;42.692;23.314;2023-05-10T04:14:31;7.87;;;5.47;;
24277;SDS011;12394;42.692;23.314;2023-05-10T04:16:57;6.93;;;5.90;;
24277;SDS011;12394;42.692;23.314;2023-05-10T04:19:22;8.40;;;6.53;;
24277;SDS011;12394;42.692;23.314;2023-05-10T04:21:47;7.57;;;6.20;;
24277;SDS011;12394;42.692;23.314;2023-05-10T04:24:13;8.57;;;6.47;;
24277;SDS011;12394;42.692;23.314;2023-05-10T04:26:38;12.13;;;6.13;;
24277;SDS011;12394;42.692;23.314;2023-05-10T04:29:04;7.20;;;6.50;;
24277;SDS011;12394;42.692;23.314;2023-05-10T04:31:29;7.07;;;6.00;;
24277;SDS011;12394;42.692;23.314;2023-05-10T04:33:54;11.57;;;7.70;;
24277;SDS011;12394;42.692;23.314;2023-05-10T04:36:20;7.03;;;5.80;;
24277;SDS011;12394;42.692;23.314;2023-05-10T04:38:45;7.63;;;5.90;;
24277;SDS011;12394;42.692;23.314;2023-05-10T04:41:11;9.33;;;6.70;;
24277;SDS011;12394;42.692;23.314;2023-05-10T04:43:36;8.13;;;6.20;;
24277;SDS011;12394;42.692;23.314;2023-05-10T04:46:03;7.63;;;5.70;;
24277;SDS011;12394;42.692;23.314;2023-05-10T04:48:29;10.17;;;5.97;;
24277;SDS011;12394;42.692;23.314;2023-05-10T04:50:54;8.07;;;6.63;;
24277;SDS011;12394;42.692;23.314;2023-05-10T04:53:20;10.37;;;6.10;;
24277;SDS011;12394;42.692;23.314;2023-05-10T04:55:46;10.87;;;5.93;;
24277;SDS011;12394;42.692;23.314;2023-05-10T04:58:11;7.43;;;5.70;;
24277;SDS011;12394;42.692;23.314;2023-05-10T05:00:37;10.87;;;6.70;;
24277;SDS011;12394;42.692;23.314;2023-05-10T05:03:02;7.60;;;6.23;;
24277;SDS011;12394;42.692;23.314;2023-05-10T05:05:29;9.90;;;7.20;;
24277;SDS011;12394;42.692;23.314;2023-05-10T05:07:54;8.50;;;6.83;;
24277;SDS011;12394;42.692;23.314;2023-05-10T05:10:19;10.23;;;7.07;;
24277;SDS011;12394;42.692;23.314;2023-05-10T05:12:45;9.47;;;6.53;;
24277;SDS011;12394;42.692;23.314;2023-05-10T05:15:10;8.60;;;6.50;;
24277;SDS011;12394;42.692;23.314;2023-05-10T05:17:36;10.93;;;6.90;;
24277;SDS011;12394;42.692;23.314;2023-05-10T05:20:01;9.37;;;5.57;;
24277;SDS011;12394;42.692;23.314;2023-05-10T05:22:47;11.37;;;6.80;;
24277;SDS011;12394;42.692;23.314;2023-05-10T05:25:12;8.77;;;6.80;;
24277;SDS011;12394;42.692;23.314;2023-05-10T05:27:38;8.97;;;7.33;;
24277;SDS011;12394;42.692;23.314;2023-05-10T05:30:03;12.87;;;7.90;;
24277;SDS011;12394;42.692;23.314;2023-05-10T05:32:29;9.98;;;8.00;;
24277;SDS011;12394;42.692;23.314;2023-05-10T05:34:55;12.80;;;7.80;;
24277;SDS011;12394;42.692;23.314;2023-05-10T05:37:20;27.80;;;19.97;;
24277;SDS011;12394;42.692;23.314;2023-05-10T05:39:46;10.70;;;8.07;;
24277;SDS011;12394;42.692;23.314;2023-05-10T05:42:12;11.40;;;8.13;;
24277;SDS011;12394;42.692;23.314;2023-05-10T05:44:38;8.20;;;7.27;;
24277;SDS011;12394;42.692;23.314;2023-05-10T05:47:05;10.87;;;8.27;;
24277;SDS011;12394;42.692;23.314;2023-05-10T05:49:31;13.53;;;9.00;;
24277;SDS011;12394;42.692;23.314;2023-05-10T05:52:00;14.83;;;9.03;;
24277;SDS011;12394;42.692;23.314;2023-05-10T05:54:26;13.70;;;8.83;;
24277;SDS011;12394;42.692;23.314;2023-05-10T05:56:55;10.33;;;8.37;;
24277;SDS011;12394;42.692;23.314;2023-05-10T05:59:21;12.73;;;9.17;;
24277;SDS011;12394;42.692;23.314;2023-05-10T06:01:47;15.93;;;9.43;;
24277;SDS011;12394;42.692;23.314;2023-05-10T06:04:12;13.13;;;9.00;;
24277;SDS011;12394;42.692;23.314;2023-05-10T06:06:38;9.13;;;8.20;;
24277;SDS011;12394;42.692;23.314;2023-05-10T06:09:03;11.57;;;9.27;;
24277;SDS011;12394;42.692;23.314;2023-05-10T06:11:29;13.13;;;8.30;;
24277;SDS011;12394;42.692;23.314;2023-05-10T06:13:56;9.07;;;7.90;;
24277;SDS011;12394;42.692;23.314;2023-05-10T06:16:22;12.53;;;9.17;;
24277;SDS011;12394;42.692;23.314;2023-05-10T06:18:48;11.10;;;8.80;;
24277;SDS011;12394;42.692;23.314;2023-05-10T06:21:13;10.87;;;8.97;;
24277;SDS011;12394;42.692;23.314;2023-05-10T06:23:39;12.03;;;9.00;;
24277;SDS011;12394;42.692;23.314;2023-05-10T06:26:05;16.17;;;9.00;;
24277;SDS011;12394;42.692;23.314;2023-05-10T06:28:30;11.90;;;8.20;;
24277;SDS011;12394;42.692;23.314;2023-05-10T06:30:57;9.97;;;7.77;;
24277;SDS011;12394;42.692;23.314;2023-05-10T06:33:22;11.30;;;8.10;;
24277;SDS011;12394;42.692;23.314;2023-05-10T06:35:49;12.77;;;7.63;;
24277;SDS011;12394;42.692;23.314;2023-05-10T06:38:15;16.63;;;7.80;;
24277;SDS011;12394;42.692;23.314;2023-05-10T06:40:43;10.27;;;7.87;;
24277;SDS011;12394;42.692;23.314;2023-05-10T06:43:09;13.07;;;8.50;;
24277;SDS011;12394;42.692;23.314;2023-05-10T06:45:54;7.77;;;6.50;;
24277;SDS011;12394;42.692;23.314;2023-05-10T06:48:19;9.23;;;7.30;;
24277;SDS011;12394;42.692;23.314;2023-05-10T06:50:46;11.20;;;7.80;;
24277;SDS011;12394;42.692;23.314;2023-05-10T06:53:12;10.40;;;7.83;;
24277;SDS011;12394;42.692;23.314;2023-05-10T06:55:38;9.67;;;7.03;;
24277;SDS011;12394;42.692;23.314;2023-05-10T06:58:04;31.00;;;17.97;;
24277;SDS011;12394;42.692;23.314;2023-05-10T07:00:29;10.40;;;7.43;;
24277;SDS011;12394;42.692;23.314;2023-05-10T07:02:55;7.53;;;6.80;;
24277;SDS011;12394;42.692;23.314;2023-05-10T07:05:20;19.27;;;7.70;;
24277;SDS011;12394;42.692;23.314;2023-05-10T07:07:48;11.10;;;6.90;;
24277;SDS011;12394;42.692;23.314;2023-05-10T07:10:15;12.27;;;7.53;;
24277;SDS011;12394;42.692;23.314;2023-05-10T07:12:40;11.70;;;7.27;;
24277;SDS011;12394;42.692;23.314;2023-05-10T07:15:07;13.80;;;10.00;;
24277;SDS011;12394;42.692;23.314;2023-05-10T07:17:33;9.57;;;6.83;;
24277;SDS011;12394;42.692;23.314;2023-05-10T07:19:59;12.03;;;6.63;;
24277;SDS011;12394;42.692;23.314;2023-05-10T07:22:25;8.83;;;7.17;;
24277;SDS011;12394;42.692;23.314;2023-05-10T07:24:50;14.20;;;7.80;;
24277;SDS011;12394;42.692;23.314;2023-05-10T07:27:16;8.53;;;7.40;;
24277;SDS011;12394;42.692;23.314;2023-05-10T07:29:41;7.00;;;6.30;;
24277;SDS011;12394;42.692;23.314;2023-05-10T07:32:07;13.33;;;7.77;;
24277;SDS011;12394;42.692;23.314;2023-05-10T07:34:32;10.50;;;8.43;;
24277;SDS011;12394;42.692;23.314;2023-05-10T07:36:58;10.30;;;8.30;;
24277;SDS011;12394;42.692;23.314;2023-05-10T07:39:23;15.07;;;10.27;;
24277;SDS011;12394;42.692;23.314;2023-05-10T07:41:49;15.67;;;9.07;;
24277;SDS011;12394;42.692;23.314;2023-05-10T07:44:15;9.80;;;7.80;;
24277;SDS011;12394;42.692;23.314;2023-05-10T07:46:43;20.57;;;8.33;;
24277;SDS011;12394;42.692;23.314;2023-05-10T07:49:08;11.37;;;8.10;;
24277;SDS011;12394;42.692;23.314;2023-05-10T07:51:34;13.43;;;7.80;;
24277;SDS011;12394;42.692;23.314;2023-05-10T07:53:59;11.17;;;8.90;;
24277;SDS011;12394;42.692;23.314;2023-05-10T07:56:26;14.07;;;9.70;;
24277;SDS011;12394;42.692;23.314;2023-05-10T07:58:55;13.03;;;9.30;;
24277;SDS011;12394;42.692;23.314;2023-05-10T08:01:21;13.47;;;9.43;;
24277;SDS011;12394;42.692;23.314;2023-05-10T08:03:47;12.77;;;9.00;;
24277;SDS011;12394;42.692;23.314;2023-05-10T08:06:14;40.67;;;15.17;;
24277;SDS011;12394;42.692;23.314;2023-05-10T08:08:40;19.47;;;11.83;;
24277;SDS011;12394;42.692;23.314;2023-05-10T08:11:06;23.33;;;11.57;;
24277;SDS011;12394;42.692;23.314;2023-05-10T08:13:31;21.20;;;11.77;;
24277;SDS011;12394;42.692;23.314;2023-05-10T08:15:57;20.73;;;9.40;;
24277;SDS011;12394;42.692;23.314;2023-05-10T08:18:24;13.73;;;9.77;;
24277;SDS011;12394;42.692;23.314;2023-05-10T08:20:56;13.77;;;9.07;;
24277;SDS011;12394;42.692;23.314;2023-05-10T08:23:22;15.93;;;11.07;;
24277;SDS011;12394;42.692;23.314;2023-05-10T08:25:47;12.53;;;8.23;;
24277;SDS011;12394;42.692;23.314;2023-05-10T08:28:12;8.97;;;8.07;;
24277;SDS011;12394;42.692;23.314;2023-05-10T08:30:38;14.33;;;9.40;;
24277;SDS011;12394;42.692;23.314;2023-05-10T08:33:03;8.67;;;7.63;;
24277;SDS011;12394;42.692;23.314;2023-05-10T08:35:29;13.27;;;9.43;;
24277;SDS011;12394;42.692;23.314;2023-05-10T08:37:54;11.17;;;8.03;;
24277;SDS011;12394;42.692;23.314;2023-05-10T08:40:20;11.80;;;8.27;;
24277;SDS011;12394;42.692;23.314;2023-05-10T08:42:51;9.63;;;8.33;;
24277;SDS011;12394;42.692;23.314;2023-05-10T08:45:22;11.63;;;8.83;;
24277;SDS011;12394;42.692;23.314;2023-05-10T08:47:48;13.70;;;10.30;;
24277;SDS011;12394;42.692;23.314;2023-05-10T08:50:14;9.33;;;8.40;;
24277;SDS011;12394;42.692;23.314;2023-05-10T08:52:41;13.57;;;9.73;;
24277;SDS011;12394;42.692;23.314;2023-05-10T08:55:07;10.87;;;8.13;;
24277;SDS011;12394;42.692;23.314;2023-05-10T08:57:33;12.27;;;10.07;;
24277;SDS011;12394;42.692;23.314;2023-05-10T08:59:59;8.20;;;7.40;;
24277;SDS011;12394;42.692;23.314;2023-05-10T09:02:26;11.40;;;8.40;;
24277;SDS011;12394;42.692;23.314;2023-05-10T09:04:51;9.70;;;8.10;;
24277;SDS011;12394;42.692;23.314;2023-05-10T09:07:17;8.83;;;7.93;;
24277;SDS011;12394;42.692;23.314;2023-05-10T09:09:42;10.13;;;9.03;;
24277;SDS011;12394;42.692;23.314;2023-05-10T09:12:08;10.47;;;8.40;;
24277;SDS011;12394;42.692;23.314;2023-05-10T09:14:36;11.30;;;9.43;;
24277;SDS011;12394;42.692;23.314;2023-05-10T09:17:02;11.50;;;9.53;;
24277;SDS011;12394;42.692;23.314;2023-05-10T09:19:29;9.90;;;8.90;;
24277;SDS011;12394;42.692;23.314;2023-05-10T09:21:54;12.00;;;9.07;;
24277;SDS011;12394;42.692;23.314;2023-05-10T09:24:20;14.10;;;10.70;;
24277;SDS011;12394;42.692;23.314;2023-05-10T09:26:50;13.73;;;11.10;;
24277;SDS011;12394;42.692;23.314;2023-05-10T09:29:16;11.53;;;10.10;;
24277;SDS011;12394;42.692;23.314;2023-05-10T09:34:30;13.73;;;12.17;;
24277;SDS011;12394;42.692;23.314;2023-05-10T09:36:58;13.17;;;8.60;;
24277;SDS011;12394;42.692;23.314;2023-05-10T09:39:30;10.93;;;8.90;;
24277;SDS011;12394;42.692;23.314;2023-05-10T09:41:57;11.23;;;10.13;;
24277;SDS011;12394;42.692;23.314;2023-05-10T09:44:25;18.77;;;13.13;;
24277;SDS011;12394;42.692;23.314;2023-05-10T09:46:51;9.80;;;8.60;;
24277;SDS011;12394;42.692;23.314;2023-05-10T09:49:18;9.77;;;8.77;;
24277;SDS011;12394;42.692;23.314;2023-05-10T09:51:47;15.30;;;10.33;;
24277;SDS011;12394;42.692;23.314;2023-05-10T09:56:59;12.53;;;9.17;;
24277;SDS011;12394;42.692;23.314;2023-05-10T09:59:25;9.93;;;8.63;;
24277;SDS011;12394;42.692;23.314;2023-05-10T10:01:59;12.40;;;10.30;;
24277;SDS011;12394;42.692;23.314;2023-05-10T10:04:25;9.40;;;8.03;;
24277;SDS011;12394;42.692;23.314;2023-05-10T10:07:01;8.80;;;7.83;;
24277;SDS011;12394;42.692;23.314;2023-05-10T10:09:29;12.97;;;9.77;;
24277;SDS011;12394;42.692;23.314;2023-05-10T10:11:55;11.03;;;9.70;;
24277;SDS011;12394;42.692;23.314;2023-05-10T10:14:22;11.23;;;8.87;;
24277;SDS011;12394;42.692;23.314;2023-05-10T10:16:49;12.40;;;7.73;;
24277;SDS011;12394;42.692;23.314;2023-05-10T10:19:15;33.43;;;10.27;;
24277;SDS011;12394;42.692;23.314;2023-05-10T10:21:45;9.13;;;8.10;;
24277;SDS011;12394;42.692;23.314;2023-05-10T10:24:11;11.00;;;8.53;;
24277;SDS011;12394;42.692;23.314;2023-05-10T10:26:37;13.17;;;8.73;;
24277;SDS011;12394;42.692;23.314;2023-05-10T10:35:05;13.20;;;7.97;;
24277;SDS011;12394;42.692;23.314;2023-05-10T10:37:41;11.33;;;7.17;;
24277;SDS011;12394;42.692;23.314;2023-05-10T10:40:30;11.20;;;7.00;;
24277;SDS011;12394;42.692;23.314;2023-05-10T10:42:57;10.47;;;7.23;;
24277;SDS011;12394;42.692;23.314;2023-05-10T10:45:24;12.13;;;7.40;;
24277;SDS011;12394;42.692;23.314;2023-05-10T10:50:45;6.30;;;5.67;;
24277;SDS011;12394;42.692;23.314;2023-05-10T10:53:11;10.80;;;7.43;;
24277;SDS011;12394;42.692;23.314;2023-05-10T10:55:45;7.93;;;7.13;;
24277;SDS011;12394;42.692;23.314;2023-05-10T10:58:12;11.33;;;6.80;;
24277;SDS011;12394;42.692;23.314;2023-05-10T11:01:08;8.83;;;7.23;;
24277;SDS011;12394;42.692;23.314;2023-05-10T11:03:38;13.37;;;6.60;;
24277;SDS011;12394;42.692;23.314;2023-05-10T11:06:04;13.50;;;7.03;;
24277;SDS011;12394;42.692;23.314;2023-05-10T11:08:33;13.33;;;8.97;;
24277;SDS011;12394;42.692;23.314;2023-05-10T11:11:06;8.30;;;6.57;;
24277;SDS011;12394;42.692;23.314;2023-05-10T11:13:33;7.23;;;6.53;;
24277;SDS011;12394;42.692;23.314;2023-05-10T11:19:11;10.40;;;6.77;;
24277;SDS011;12394;42.692;23.314;2023-05-10T11:24:38;10.70;;;6.67;;
24277;SDS011;12394;42.692;23.314;2023-05-10T11:27:04;11.10;;;6.73;;
24277;SDS011;12394;42.692;23.314;2023-05-10T11:29:51;13.40;;;5.77;;
24277;SDS011;12394;42.692;23.314;2023-05-10T11:32:17;6.57;;;5.70;;
24277;SDS011;12394;42.692;23.314;2023-05-10T11:34:46;7.50;;;6.33;;
24277;SDS011;12394;42.692;23.314;2023-05-10T11:37:13;12.13;;;6.30;;
24277;SDS011;12394;42.692;23.314;2023-05-10T11:39:38;9.90;;;6.63;;
24277;SDS011;12394;42.692;23.314;2023-05-10T11:42:03;7.93;;;5.50;;
24277;SDS011;12394;42.692;23.314;2023-05-10T11:44:29;8.60;;;6.63;;
24277;SDS011;12394;42.692;23.314;2023-05-10T11:46:58;9.97;;;6.80;;
24277;SDS011;12394;42.692;23.314;2023-05-10T11:49:26;8.07;;;6.67;;
24277;SDS011;12394;42.692;23.314;2023-05-10T11:51:52;8.90;;;7.20;;
24277;SDS011;12394;42.692;23.314;2023-05-10T11:54:17;8.53;;;6.83;;
24277;SDS011;12394;42.692;23.314;2023-05-10T11:56:43;7.33;;;6.63;;
24277;SDS011;12394;42.692;23.314;2023-05-10T11:59:09;7.40;;;5.60;;
24277;SDS011;12394;42.692;23.314;2023-05-10T12:01:35;9.50;;;6.47;;
24277;SDS011;12394;42.692;23.314;2023-05-10T12:04:01;11.10;;;6.83;;
24277;SDS011;12394;42.692;23.314;2023-05-10T12:06:28;11.20;;;6.77;;
24277;SDS011;12394;42.692;23.314;2023-05-10T12:08:55;11.17;;;7.00;;
24277;SDS011;12394;42.692;23.314;2023-05-10T12:11:24;8.97;;;6.77;;
24277;SDS011;12394;42.692;23.314;2023-05-10T12:13:50;14.33;;;8.20;;
24277;SDS011;12394;42.692;23.314;2023-05-10T12:16:17;10.83;;;7.07;;
24277;SDS011;12394;42.692;23.314;2023-05-10T12:19:01;8.80;;;7.37;;
24277;SDS011;12394;42.692;23.314;2023-05-10T12:21:27;12.73;;;7.43;;
24277;SDS011;12394;42.692;23.314;2023-05-10T12:23:54;12.37;;;8.30;;
24277;SDS011;12394;42.692;23.314;2023-05-10T12:26:27;11.43;;;7.60;;
24277;SDS011;12394;42.692;23.314;2023-05-10T12:28:53;7.90;;;6.33;;
24277;SDS011;12394;42.692;23.314;2023-05-10T12:31:19;9.43;;;7.77;;
24277;SDS011;12394;42.692;23.314;2023-05-10T12:33:45;13.70;;;7.67;;
24277;SDS011;12394;42.692;23.314;2023-05-10T12:36:12;10.40;;;7.50;;
24277;SDS011;12394;42.692;23.314;2023-05-10T12:38:43;9.67;;;7.07;;
24277;SDS011;12394;42.692;23.314;2023-05-10T12:41:13;10.90;;;8.37;;
24277;SDS011;12394;42.692;23.314;2023-05-10T12:43:40;8.87;;;7.97;;
24277;SDS011;12394;42.692;23.314;2023-05-10T12:48:31;9.87;;;8.00;;
24277;SDS011;12394;42.692;23.314;2023-05-10T12:50:58;7.47;;;6.00;;
24277;SDS011;12394;42.692;23.314;2023-05-10T12:53:24;8.20;;;7.10;;
24277;SDS011;12394;42.692;23.314;2023-05-10T12:55:50;8.17;;;6.90;;
24277;SDS011;12394;42.692;23.314;2023-05-10T12:58:15;9.53;;;7.53;;
24277;SDS011;12394;42.692;23.314;2023-05-10T13:00:41;11.63;;;6.57;;
24277;SDS011;12394;42.692;23.314;2023-05-10T13:03:06;7.50;;;6.53;;
24277;SDS011;12394;42.692;23.314;2023-05-10T13:05:34;10.33;;;7.63;;
24277;SDS011;12394;42.692;23.314;2023-05-10T13:08:00;11.30;;;8.23;;
24277;SDS011;12394;42.692;23.314;2023-05-10T13:10:25;11.30;;;7.90;;
24277;SDS011;12394;42.692;23.314;2023-05-10T13:12:51;12.60;;;7.60;;
24277;SDS011;12394;42.692;23.314;2023-05-10T13:15:16;11.67;;;8.90;;
24277;SDS011;12394;42.692;23.314;2023-05-10T13:17:42;9.43;;;6.27;;
24277;SDS011;12394;42.692;23.314;2023-05-10T13:20:08;13.23;;;8.50;;
24277;SDS011;12394;42.692;23.314;2023-05-10T13:22:34;20.00;;;9.37;;
24277;SDS011;12394;42.692;23.314;2023-05-10T13:25:00;10.80;;;8.43;;
24277;SDS011;12394;42.692;23.314;2023-05-10T13:27:26;12.13;;;8.23;;
24277;SDS011;12394;42.692;23.314;2023-05-10T13:29:51;16.27;;;8.53;;
24277;SDS011;12394;42.692;23.314;2023-05-10T13:32:17;18.17;;;9.80;;
24277;SDS011;12394;42.692;23.314;2023-05-10T13:34:42;12.80;;;7.37;;
24277;SDS011;12394;42.692;23.314;2023-05-10T13:37:07;10.40;;;7.50;;
24277;SDS011;12394;42.692;23.314;2023-05-10T13:39:33;9.90;;;7.50;;
24277;SDS011;12394;42.692;23.314;2023-05-10T13:41:59;10.07;;;7.07;;
24277;SDS011;12394;42.692;23.314;2023-05-10T13:44:25;8.57;;;6.80;;
24277;SDS011;12394;42.692;23.314;2023-05-10T13:46:51;10.90;;;6.97;;
24277;SDS011;12394;42.692;23.314;2023-05-10T13:49:16;12.13;;;7.37;;
24277;SDS011;12394;42.692;23.314;2023-05-10T13:51:42;10.30;;;6.80;;
24277;SDS011;12394;42.692;23.314;2023-05-10T13:54:08;9.57;;;6.03;;
24277;SDS011;12394;42.692;23.314;2023-05-10T13:56:39;8.13;;;6.43;;
24277;SDS011;12394;42.692;23.314;2023-05-10T13:59:06;9.63;;;6.40;;
24277;SDS011;12394;42.692;23.314;2023-05-10T14:01:32;9.13;;;6.97;;
24277;SDS011;12394;42.692;23.314;2023-05-10T14:03:58;10.70;;;6.50;;
24277;SDS011;12394;42.692;23.314;2023-05-10T14:06:23;8.63;;;6.97;;
24277;SDS011;12394;42.692;23.314;2023-05-10T14:08:48;10.63;;;8.57;;
24277;SDS011;12394;42.692;23.314;2023-05-10T14:11:14;9.03;;;7.10;;
24277;SDS011;12394;42.692;23.314;2023-05-10T14:13:40;11.37;;;7.20;;
24277;SDS011;12394;42.692;23.314;2023-05-10T14:16:05;7.80;;;6.30;;
24277;SDS011;12394;42.692;23.314;2023-05-10T14:18:31;13.13;;;8.17;;
24277;SDS011;12394;42.692;23.314;2023-05-10T14:20:59;9.90;;;6.87;;
24277;SDS011;12394;42.692;23.314;2023-05-10T14:23:26;16.43;;;8.23;;
24277;SDS011;12394;42.692;23.314;2023-05-10T14:25:53;11.40;;;7.30;;
24277;SDS011;12394;42.692;23.314;2023-05-10T14:28:19;12.17;;;9.07;;
24277;SDS011;12394;42.692;23.314;2023-05-10T14:30:45;8.37;;;6.90;;
24277;SDS011;12394;42.692;23.314;2023-05-10T14:33:11;9.90;;;6.80;;
24277;SDS011;12394;42.692;23.314;2023-05-10T14:35:37;11.70;;;7.30;;
24277;SDS011;12394;42.692;23.314;2023-05-10T14:38:02;9.60;;;7.13;;
24277;SDS011;12394;42.692;23.314;2023-05-10T14:40:31;9.17;;;7.30;;
24277;SDS011;12394;42.692;23.314;2023-05-10T14:42:56;12.77;;;8.00;;
24277;SDS011;12394;42.692;23.314;2023-05-10T14:45:22;10.70;;;7.60;;
24277;SDS011;12394;42.692;23.314;2023-05-10T14:47:48;10.50;;;7.97;;
24277;SDS011;12394;42.692;23.314;2023-05-10T14:50:14;8.47;;;7.37;;
24277;SDS011;12394;42.692;23.314;2023-05-10T14:55:59;11.37;;;7.63;;
24277;SDS011;12394;42.692;23.314;2023-05-10T14:58:26;9.70;;;7.63;;
24277;SDS011;12394;42.692;23.314;2023-05-10T15:00:51;12.00;;;7.83;;
24277;SDS011;12394;42.692;23.314;2023-05-10T15:03:18;11.87;;;8.20;;
24277;SDS011;12394;42.692;23.314;2023-05-10T15:05:44;17.93;;;9.23;;
24277;SDS011;12394;42.692;23.314;2023-05-10T15:08:09;10.20;;;6.47;;
24277;SDS011;12394;42.692;23.314;2023-05-10T15:10:36;10.27;;;8.00;;
24277;SDS011;12394;42.692;23.314;2023-05-10T15:13:03;12.87;;;8.77;;
24277;SDS011;12394;42.692;23.314;2023-05-10T15:15:28;10.27;;;7.70;;
24277;SDS011;12394;42.692;23.314;2023-05-10T15:17:54;9.90;;;7.53;;